Fecha, hora, temperatura, viento dirección y velocidad, humedad y presión.

  • 20-03-2019 00:00:00 | 8.00°C | Nordeste |4.00 km/h | 52.00% | 947.80 hPa
  • 19-03-2019 23:00:00 | 8.70°C | Este |9.00 km/h | 49.00% | 947.40 hPa
  • 19-03-2019 22:00:00 | 9.80°C | Nordeste |12.00 km/h | 47.00% | 946.70 hPa
  • 19-03-2019 21:00:00 | 11.00°C | Nordeste |16.00 km/h | 45.00% | 945.70 hPa
  • 19-03-2019 20:00:00 | 11.90°C | Norte |15.00 km/h | 43.00% | 945.20 hPa
  • 19-03-2019 19:00:00 | 13.20°C | Nordeste |14.00 km/h | 43.00% | 944.80 hPa
  • 19-03-2019 18:00:00 | 14.30°C | Nordeste |13.00 km/h | 41.00% | 944.20 hPa
  • 19-03-2019 17:00:00 | 15.10°C | Nordeste |14.00 km/h | 40.00% | 944.10 hPa
  • 19-03-2019 16:00:00 | 14.90°C | Nordeste |14.00 km/h | 41.00% | 944.20 hPa
  • 19-03-2019 15:00:00 | 14.20°C | Nordeste |15.00 km/h | 41.00% | 944.60 hPa
  • 19-03-2019 14:00:00 | 14.80°C | Nordeste |11.00 km/h | 42.00% | 944.90 hPa
  • 19-03-2019 13:00:00 | 13.70°C | Nordeste |14.00 km/h | 44.00% | 945.40 hPa
  • 19-03-2019 12:00:00 | 12.70°C | Norte |11.00 km/h | 46.00% | 945.60 hPa
  • 19-03-2019 11:00:00 | 11.60°C | Nordeste |13.00 km/h | 47.00% | 945.80 hPa
  • 19-03-2019 10:00:00 | 10.10°C | Nordeste |9.00 km/h | 51.00% | 945.70 hPa
  • 19-03-2019 09:00:00 | 8.30°C | Norte |10.00 km/h | 53.00% | 945.60 hPa
  • 19-03-2019 08:00:00 | 7.40°C | Nordeste |6.00 km/h | 54.00% | 945.50 hPa
  • 19-03-2019 07:00:00 | 6.90°C | Nordeste |6.00 km/h | 54.00% | 945.30 hPa
  • 19-03-2019 06:00:00 | 6.70°C | Nordeste |8.00 km/h | 55.00% | 945.30 hPa
  • 19-03-2019 05:00:00 | 6.30°C | Este |3.00 km/h | 55.00% | 945.10 hPa
  • 19-03-2019 04:00:00 | 6.20°C | Nordeste |6.00 km/h | 56.00% | 945.30 hPa
  • 19-03-2019 03:00:00 | 6.40°C | Este |6.00 km/h | 55.00% | 945.80 hPa
  • 19-03-2019 02:00:00 | 6.90°C | Nordeste |8.00 km/h | 53.00% | 945.90 hPa
  • 19-03-2019 01:00:00 | 7.40°C | Este |10.00 km/h | 51.00% | 945.90 hPa
    • diseño web asturias Información sobre el estado de las mareas, altura de la marejada, temperatura del agua y otros datos de Gijón en Asturias.

      Surf Gijón